createdAt,value
2023-01-26T00:01:38.503Z,0.30
2023-01-26T00:04:08.715Z,0.20
2023-01-26T00:06:41.437Z,0.00
2023-01-26T00:09:18.831Z,0.00
2023-01-26T00:11:48.906Z,0.00
2023-01-26T00:14:19.113Z,0.10
2023-01-26T00:16:49.199Z,0.10
2023-01-26T00:19:20.496Z,0.30
2023-01-26T00:21:53.165Z,0.20
2023-01-26T00:24:23.363Z,0.10
2023-01-26T00:26:53.457Z,0.00
2023-01-26T00:29:23.868Z,0.00
2023-01-26T00:31:53.948Z,0.20
2023-01-26T00:34:24.262Z,-0.10
2023-01-26T00:36:56.916Z,0.10
2023-01-26T00:39:27.142Z,0.10
2023-01-26T00:42:09.979Z,0.00
2023-01-26T00:44:42.435Z,0.00
2023-01-26T00:47:15.676Z,-0.10
2023-01-26T00:49:45.867Z,-0.20
2023-01-26T00:52:26.318Z,-0.20
2023-01-26T00:54:56.474Z,-0.20
2023-01-26T00:57:26.591Z,-0.10
2023-01-26T00:59:56.734Z,0.00
2023-01-26T01:02:26.865Z,-0.10
2023-01-26T01:04:57.265Z,-0.20
2023-01-26T01:07:29.935Z,-0.10
2023-01-26T01:10:01.018Z,-0.20
2023-01-26T01:12:31.365Z,-0.30
2023-01-26T01:15:01.645Z,-0.20
2023-01-26T01:17:31.878Z,-0.30
2023-01-26T01:20:02.084Z,-0.40
2023-01-26T01:22:35.013Z,-0.30
2023-01-26T01:25:05.462Z,-0.50
2023-01-26T01:27:35.640Z,-0.50
2023-01-26T01:30:08.357Z,-0.40
2023-01-26T01:32:40.242Z,-0.30
2023-01-26T01:35:11.800Z,-0.40
2023-01-26T01:37:44.489Z,-0.30
2023-01-26T01:40:16.884Z,-0.40
2023-01-26T01:42:51.330Z,-0.50
2023-01-26T01:45:45.018Z,-0.50
2023-01-26T01:48:28.670Z,-0.70
2023-01-26T01:51:06.276Z,-0.60
2023-01-26T01:53:46.143Z,-0.70
2023-01-26T01:56:21.980Z,-0.70
2023-01-26T01:58:57.674Z,-0.60
2023-01-26T02:01:28.457Z,-0.60
2023-01-26T02:04:03.787Z,-0.50
2023-01-26T02:06:42.470Z,-0.60
2023-01-26T02:09:36.923Z,-0.60
2023-01-26T02:12:14.828Z,-0.60
2023-01-26T02:14:45.453Z,-0.70
2023-01-26T02:17:15.563Z,-0.50
2023-01-26T02:20:08.564Z,-0.40
2023-01-26T02:22:52.189Z,0.00
2023-01-26T02:25:39.197Z,-0.40
2023-01-26T02:28:14.492Z,-0.40
2023-01-26T02:30:44.683Z,-0.30
2023-01-26T02:33:20.498Z,-0.30
2023-01-26T02:35:50.859Z,-0.40
2023-01-26T02:38:24.453Z,-0.60
2023-01-26T02:40:59.275Z,-0.50
2023-01-26T02:43:29.928Z,-0.70
2023-01-26T02:46:00.215Z,-0.70
2023-01-26T02:48:42.831Z,-0.60
2023-01-26T02:51:14.823Z,-0.70
2023-01-26T02:53:44.922Z,-0.80
2023-01-26T02:56:12.990Z,-0.80
2023-01-26T02:58:45.782Z,-0.90
2023-01-26T03:01:15.995Z,-0.90
2023-01-26T03:03:46.077Z,-1.00
2023-01-26T03:06:16.476Z,-1.00
2023-01-26T03:08:46.590Z,-0.90
2023-01-26T03:11:16.631Z,-0.90
2023-01-26T03:13:49.320Z,-0.80
2023-01-26T03:16:19.484Z,-0.80
2023-01-26T03:19:02.042Z,-0.80
2023-01-26T03:21:44.595Z,-0.80
2023-01-26T03:24:29.510Z,-0.90
2023-01-26T03:27:12.395Z,-0.90
2023-01-26T03:29:45.062Z,-1.00
2023-01-26T03:32:16.982Z,-1.00
2023-01-26T03:34:47.872Z,-1.10
2023-01-26T03:37:22.759Z,-1.20
2023-01-26T03:40:06.455Z,-1.20
2023-01-26T03:42:50.110Z,-1.10
2023-01-26T03:45:35.555Z,-1.20
2023-01-26T03:48:23.819Z,-1.10
2023-01-26T03:51:06.483Z,-1.10
2023-01-26T03:53:49.049Z,-1.00
2023-01-26T03:56:22.179Z,-1.00
2023-01-26T03:58:56.289Z,-0.80
2023-01-26T04:01:33.128Z,-0.80
2023-01-26T04:04:15.883Z,-0.90
2023-01-26T04:07:01.531Z,-0.90
2023-01-26T04:09:32.398Z,-1.00
2023-01-26T04:12:03.332Z,-1.10
2023-01-26T04:14:50.253Z,-1.20
2023-01-26T04:17:39.315Z,-1.10
2023-01-26T04:20:27.706Z,-1.00
2023-01-26T04:22:57.836Z,-1.10
2023-01-26T04:25:28.094Z,-1.10
2023-01-26T04:27:58.222Z,-1.20
2023-01-26T04:30:28.449Z,-1.20
2023-01-26T04:33:01.445Z,-1.20
2023-01-26T04:35:31.581Z,-1.20
2023-01-26T04:38:03.312Z,-1.20
2023-01-26T04:40:33.469Z,-1.10
2023-01-26T04:43:06.655Z,-1.10
2023-01-26T04:45:36.835Z,-1.20
2023-01-26T04:48:11.633Z,-1.20
2023-01-26T04:50:41.768Z,-1.20
2023-01-26T04:53:11.923Z,-1.10
2023-01-26T04:55:42.088Z,-1.20
2023-01-26T04:58:12.382Z,-1.20
2023-01-26T05:00:42.621Z,-1.20
2023-01-26T05:03:16.811Z,-1.20
2023-01-26T05:05:47.604Z,-1.20
2023-01-26T05:08:18.428Z,-1.20
2023-01-26T05:10:49.706Z,-1.20
2023-01-26T05:13:19.788Z,-1.20
2023-01-26T05:15:50.397Z,-1.20
2023-01-26T05:18:23.401Z,-1.10
2023-01-26T05:20:53.606Z,-1.10
2023-01-26T05:23:23.747Z,-1.00
2023-01-26T05:25:54.251Z,-1.00
2023-01-26T05:28:26.764Z,-0.90
2023-01-26T05:30:57.200Z,-1.00
2023-01-26T05:33:30.135Z,-1.00
2023-01-26T05:36:00.967Z,-1.00
2023-01-26T05:38:31.963Z,-1.10
2023-01-26T05:41:02.444Z,-1.20
2023-01-26T05:43:32.598Z,-1.10
2023-01-26T05:46:02.797Z,-0.50
2023-01-26T05:48:35.571Z,-0.30
2023-01-26T05:51:05.677Z,-0.50
2023-01-26T05:53:38.835Z,-0.50
2023-01-26T05:56:13.968Z,-0.40
2023-01-26T05:58:44.187Z,-0.50
2023-01-26T06:01:14.290Z,-0.50
2023-01-26T06:03:50.127Z,-0.60
2023-01-26T06:06:20.826Z,-0.50
2023-01-26T06:08:50.996Z,-0.50
2023-01-26T06:11:21.079Z,-0.50
2023-01-26T06:13:51.377Z,-0.50
2023-01-26T06:16:21.590Z,-0.60
2023-01-26T06:18:56.559Z,-0.70
2023-01-26T06:21:26.812Z,-0.70
2023-01-26T06:23:57.341Z,-0.60
2023-01-26T06:26:29.199Z,-0.60
2023-01-26T06:29:00.276Z,-0.50
2023-01-26T06:31:33.639Z,-0.60
2023-01-26T06:34:06.573Z,-0.60
2023-01-26T06:36:36.687Z,-0.60
2023-01-26T06:39:07.656Z,-0.60
2023-01-26T06:41:37.735Z,-0.70
2023-01-26T06:44:08.343Z,-0.60
2023-01-26T06:46:38.591Z,-0.60
2023-01-26T06:49:12.578Z,-0.60
2023-01-26T06:51:59.917Z,-0.60
2023-01-26T06:54:30.119Z,-0.60
2023-01-26T06:57:00.185Z,-0.60
2023-01-26T06:59:30.357Z,-0.60
2023-01-26T07:02:00.491Z,-0.40
2023-01-26T07:04:34.272Z,-0.30
2023-01-26T07:07:04.578Z,-0.30
2023-01-26T07:09:34.780Z,-0.40
2023-01-26T07:12:04.878Z,-0.30
2023-01-26T07:14:35.673Z,-0.40
2023-01-26T07:17:06.597Z,-0.40
2023-01-26T07:19:39.437Z,-0.40
2023-01-26T07:22:09.555Z,-0.50
2023-01-26T07:24:39.866Z,-0.40
2023-01-26T07:27:10.782Z,-0.30
2023-01-26T07:29:40.895Z,0.00
2023-01-26T07:32:11.379Z,0.10
2023-01-26T07:34:44.214Z,0.00
2023-01-26T07:37:14.327Z,0.00
2023-01-26T07:39:45.799Z,-0.20
2023-01-26T07:42:16.130Z,-0.10
2023-01-26T07:44:46.276Z,-0.10
2023-01-26T07:47:18.498Z,-0.20
2023-01-26T07:49:51.235Z,-0.20
2023-01-26T07:52:22.904Z,-0.10
2023-01-26T07:54:53.659Z,-0.10
2023-01-26T07:57:31.172Z,0.00
2023-01-26T08:00:01.371Z,0.00
2023-01-26T08:02:31.551Z,-0.10
2023-01-26T08:05:04.848Z,0.00
2023-01-26T08:07:34.982Z,0.10
2023-01-26T08:10:07.395Z,0.00
2023-01-26T08:12:41.116Z,-0.10
2023-01-26T08:15:13.762Z,-0.10
2023-01-26T08:17:45.187Z,-0.10
2023-01-26T08:20:18.416Z,0.00
2023-01-26T08:22:48.502Z,0.10
2023-01-26T08:25:20.828Z,0.00
2023-01-26T08:27:50.946Z,0.10
2023-01-26T08:30:21.860Z,0.10
2023-01-26T08:32:51.933Z,0.10
2023-01-26T08:35:24.733Z,0.10
2023-01-26T08:37:54.814Z,0.20
2023-01-26T08:40:27.387Z,0.40
2023-01-26T08:42:57.511Z,0.60
2023-01-26T08:45:27.744Z,0.70
2023-01-26T08:47:57.884Z,0.90
2023-01-26T08:50:31.388Z,0.80
2023-01-26T08:53:01.600Z,0.90
2023-01-26T08:55:32.681Z,0.80
2023-01-26T08:58:02.794Z,0.70
2023-01-26T09:00:34.241Z,0.60
2023-01-26T09:03:06.302Z,0.60
2023-01-26T09:05:42.277Z,0.60
2023-01-26T09:08:15.915Z,0.50
2023-01-26T09:10:46.606Z,0.70
2023-01-26T09:13:16.941Z,0.70
2023-01-26T09:15:47.079Z,0.90
2023-01-26T09:18:18.540Z,1.30
2023-01-26T09:20:56.832Z,1.60
2023-01-26T09:23:27.033Z,1.40
2023-01-26T09:25:57.191Z,1.10
2023-01-26T09:28:27.362Z,1.20
2023-01-26T09:30:58.049Z,1.10
2023-01-26T09:33:28.261Z,0.90
2023-01-26T09:36:07.511Z,1.10
2023-01-26T09:38:38.103Z,1.10
2023-01-26T09:41:29.995Z,1.10
2023-01-26T09:44:08.785Z,1.00
2023-01-26T09:47:00.699Z,0.90
2023-01-26T09:49:46.094Z,0.90
2023-01-26T09:52:29.665Z,1.20
2023-01-26T09:55:11.081Z,1.20
2023-01-26T09:57:51.963Z,1.20
2023-01-26T10:00:30.687Z,1.20
2023-01-26T10:03:16.731Z,1.20
2023-01-26T10:05:54.987Z,1.20
2023-01-26T10:08:30.546Z,1.40
2023-01-26T10:11:08.917Z,1.50
2023-01-26T10:13:39.252Z,1.40
2023-01-26T10:16:14.498Z,1.30
2023-01-26T10:18:54.807Z,1.20
2023-01-26T10:21:32.647Z,1.10
2023-01-26T10:24:08.765Z,1.10
2023-01-26T10:26:38.896Z,0.90
2023-01-26T10:29:09.058Z,0.80
2023-01-26T10:31:39.153Z,0.80
2023-01-26T10:34:18.200Z,0.80
2023-01-26T10:36:52.146Z,1.00
2023-01-26T10:39:24.896Z,1.10
2023-01-26T10:42:03.967Z,1.20
2023-01-26T10:44:43.558Z,1.20
2023-01-26T10:47:22.432Z,1.30
2023-01-26T10:49:55.240Z,1.50
2023-01-26T10:52:27.864Z,1.40
2023-01-26T10:55:22.987Z,1.40
2023-01-26T10:57:53.252Z,1.20
2023-01-26T11:00:31.696Z,1.20
2023-01-26T11:03:18.585Z,1.30
2023-01-26T11:05:49.482Z,1.30
2023-01-26T11:08:37.768Z,1.40
2023-01-26T11:11:27.093Z,1.20
2023-01-26T11:14:18.689Z,1.20
2023-01-26T11:16:56.810Z,1.30
2023-01-26T11:19:56.591Z,1.30
2023-01-26T11:22:39.621Z,1.30
2023-01-26T11:25:30.947Z,1.30
2023-01-26T11:28:32.368Z,1.20
2023-01-26T11:31:22.749Z,1.20
2023-01-26T11:34:11.877Z,1.20
2023-01-26T11:36:55.398Z,1.50
2023-01-26T11:39:37.423Z,1.50
2023-01-26T11:42:28.438Z,1.60
2023-01-26T11:45:23.745Z,1.50
2023-01-26T11:48:12.840Z,1.60
2023-01-26T11:50:50.139Z,1.50
2023-01-26T11:53:58.426Z,1.40
2023-01-26T11:56:44.393Z,1.60
2023-01-26T11:59:22.007Z,1.50
2023-01-26T12:02:04.459Z,1.50
2023-01-26T12:04:45.389Z,1.40
2023-01-26T12:07:25.350Z,1.40
2023-01-26T12:09:56.281Z,1.30
2023-01-26T12:12:40.162Z,1.30
2023-01-26T12:15:18.620Z,1.40
2023-01-26T12:18:02.588Z,1.50
2023-01-26T12:20:41.761Z,1.50
2023-01-26T12:23:25.533Z,1.50
2023-01-26T12:26:05.319Z,1.60
2023-01-26T12:28:47.698Z,1.90
2023-01-26T12:31:29.391Z,2.20
2023-01-26T12:34:02.638Z,2.00
2023-01-26T12:36:49.293Z,2.10
2023-01-26T12:39:29.699Z,1.90
2023-01-26T12:42:31.109Z,1.60
2023-01-26T12:45:04.224Z,1.50
2023-01-26T12:47:40.970Z,1.60
2023-01-26T12:50:30.070Z,1.60
2023-01-26T12:53:08.565Z,1.50
2023-01-26T12:55:49.009Z,1.30
2023-01-26T12:58:27.499Z,1.70
2023-01-26T13:01:07.303Z,1.60
2023-01-26T13:03:41.990Z,1.60
2023-01-26T13:06:27.025Z,1.60
2023-01-26T13:09:07.399Z,1.60
2023-01-26T13:12:07.452Z,1.70
2023-01-26T13:15:00.902Z,1.70
2023-01-26T13:17:56.021Z,1.70
2023-01-26T13:20:50.009Z,2.10
2023-01-26T13:23:50.983Z,2.20
2023-01-26T13:26:54.827Z,2.00
2023-01-26T13:29:40.723Z,1.80
2023-01-26T13:32:59.975Z,1.70
2023-01-26T13:35:32.717Z,1.70
2023-01-26T13:38:17.153Z,1.50
2023-01-26T13:40:52.816Z,1.60
2023-01-26T13:43:39.469Z,1.80
2023-01-26T13:46:22.663Z,2.00
2023-01-26T13:48:55.712Z,1.90
2023-01-26T13:51:30.570Z,1.70
2023-01-26T13:54:08.401Z,1.80
2023-01-26T13:56:44.121Z,1.80
2023-01-26T13:59:17.571Z,1.90
2023-01-26T14:01:51.354Z,1.80
2023-01-26T14:04:24.317Z,1.90
2023-01-26T14:07:01.479Z,1.90
2023-01-26T14:09:35.363Z,1.80
2023-01-26T14:12:09.853Z,1.70
2023-01-26T14:14:41.397Z,1.60
2023-01-26T14:17:31.461Z,1.50
2023-01-26T14:20:03.741Z,1.60
2023-01-26T14:22:34.554Z,1.70
2023-01-26T14:25:04.727Z,1.80
2023-01-26T14:27:43.085Z,1.70
2023-01-26T14:30:31.463Z,1.80
2023-01-26T14:33:09.277Z,1.60
2023-01-26T14:35:40.902Z,1.70
2023-01-26T14:38:21.171Z,1.60
2023-01-26T14:40:53.567Z,1.80
2023-01-26T14:43:28.349Z,1.70
2023-01-26T14:46:08.534Z,1.80
2023-01-26T14:48:47.825Z,1.60
2023-01-26T14:51:24.159Z,1.60
2023-01-26T14:53:58.347Z,1.60
2023-01-26T14:56:38.645Z,1.60
2023-01-26T14:59:23.571Z,1.60
2023-01-26T15:01:54.019Z,1.50
2023-01-26T15:04:34.663Z,1.50
2023-01-26T15:07:36.249Z,1.50
2023-01-26T15:10:30.505Z,1.60
2023-01-26T15:13:08.712Z,1.70
2023-01-26T15:15:48.561Z,1.70
2023-01-26T15:18:26.275Z,1.80
2023-01-26T15:21:04.369Z,1.80
2023-01-26T15:23:38.100Z,1.70
2023-01-26T15:26:11.779Z,1.90
2023-01-26T15:28:43.377Z,2.00
2023-01-26T15:31:25.981Z,1.80
2023-01-26T15:34:01.761Z,1.80
2023-01-26T15:36:49.186Z,1.70
2023-01-26T15:39:21.634Z,1.80
2023-01-26T15:42:15.983Z,1.90
2023-01-26T15:44:46.142Z,1.90
2023-01-26T15:47:21.233Z,1.80
2023-01-26T15:49:51.561Z,1.80
2023-01-26T15:52:25.682Z,2.00
2023-01-26T15:54:58.528Z,2.00
2023-01-26T15:57:31.709Z,2.00
2023-01-26T16:00:02.165Z,1.90
2023-01-26T16:02:36.786Z,1.90
2023-01-26T16:05:07.455Z,1.90
2023-01-26T16:07:37.875Z,1.80
2023-01-26T16:10:09.888Z,1.90
2023-01-26T16:12:40.034Z,2.20
2023-01-26T16:15:41.687Z,2.10
2023-01-26T16:18:16.076Z,2.10
2023-01-26T16:20:49.493Z,1.90
2023-01-26T16:23:23.053Z,2.00
2023-01-26T16:25:54.605Z,2.00
2023-01-26T16:28:25.538Z,2.00
2023-01-26T16:30:55.767Z,2.00
2023-01-26T16:33:28.656Z,1.80
2023-01-26T16:35:58.817Z,2.00
2023-01-26T16:38:28.939Z,2.10
2023-01-26T16:40:59.094Z,2.10
2023-01-26T16:43:30.286Z,2.10
2023-01-26T16:46:00.733Z,2.10
2023-01-26T16:48:35.076Z,2.10
2023-01-26T16:51:17.387Z,2.10
2023-01-26T16:53:50.517Z,2.00
2023-01-26T16:56:24.521Z,2.00
2023-01-26T16:58:55.073Z,2.00
2023-01-26T17:01:28.560Z,2.00
2023-01-26T17:04:02.793Z,1.90
2023-01-26T17:06:34.138Z,1.90
2023-01-26T17:09:04.927Z,1.90
2023-01-26T17:11:35.198Z,1.90
2023-01-26T17:14:07.968Z,2.00
2023-01-26T17:16:38.341Z,1.90
2023-01-26T17:19:11.098Z,2.00
2023-01-26T17:21:41.244Z,2.00
2023-01-26T17:24:12.650Z,2.00
2023-01-26T17:26:42.818Z,2.40
2023-01-26T17:29:14.245Z,2.60
2023-01-26T17:31:44.491Z,2.50
2023-01-26T17:34:17.175Z,2.30
2023-01-26T17:36:47.318Z,2.20
2023-01-26T17:39:18.880Z,2.20
2023-01-26T17:41:49.359Z,2.40
2023-01-26T17:44:27.129Z,2.30
2023-01-26T17:46:57.251Z,2.20
2023-01-26T17:49:30.396Z,2.20
2023-01-26T17:52:00.627Z,2.10
2023-01-26T17:54:30.906Z,2.20
2023-01-26T17:57:01.778Z,2.10
2023-01-26T17:59:31.863Z,2.10
2023-01-26T18:02:02.071Z,2.10
2023-01-26T18:04:35.211Z,2.20
2023-01-26T18:07:05.481Z,2.10
2023-01-26T18:09:35.599Z,2.10
2023-01-26T18:12:05.776Z,2.10
2023-01-26T18:14:35.895Z,2.20
2023-01-26T18:17:05.990Z,2.20
2023-01-26T18:19:38.704Z,2.20
2023-01-26T18:22:08.734Z,2.20
2023-01-26T18:24:38.915Z,2.20
2023-01-26T18:27:12.032Z,2.30
2023-01-26T18:29:42.170Z,2.30
2023-01-26T18:32:12.336Z,2.30
2023-01-26T18:34:45.079Z,2.30
2023-01-26T18:37:15.319Z,2.30
2023-01-26T18:39:48.095Z,2.40
2023-01-26T18:42:19.543Z,2.50
2023-01-26T18:44:49.656Z,2.50
2023-01-26T18:47:19.731Z,2.50
2023-01-26T18:49:52.558Z,2.60
2023-01-26T18:52:22.774Z,2.60
2023-01-26T18:54:53.287Z,2.50
2023-01-26T18:57:26.098Z,2.50
2023-01-26T18:59:56.282Z,2.70
2023-01-26T19:02:26.380Z,2.70
2023-01-26T19:04:59.375Z,2.70
2023-01-26T19:07:29.846Z,2.70
2023-01-26T19:10:00.927Z,2.70
2023-01-26T19:12:31.829Z,2.70
2023-01-26T19:15:02.913Z,2.80
2023-01-26T19:17:33.518Z,2.70
2023-01-26T19:20:06.949Z,2.60
2023-01-26T19:22:37.271Z,2.60
2023-01-26T19:25:08.609Z,2.60
2023-01-26T19:27:40.474Z,2.80
2023-01-26T19:30:13.606Z,3.00
2023-01-26T19:33:04.285Z,2.90
2023-01-26T19:35:40.786Z,2.90
2023-01-26T19:38:11.244Z,2.80
2023-01-26T19:40:41.595Z,2.80
2023-01-26T19:43:12.594Z,2.70
2023-01-26T19:45:43.266Z,2.70
2023-01-26T19:48:13.693Z,2.70
2023-01-26T19:50:46.780Z,2.80
2023-01-26T19:53:17.100Z,2.80
2023-01-26T19:55:47.460Z,2.80
2023-01-26T19:58:17.925Z,2.80
2023-01-26T20:00:48.262Z,2.80
2023-01-26T20:03:19.006Z,2.80
2023-01-26T20:05:52.044Z,2.70
2023-01-26T20:08:22.353Z,2.80
2023-01-26T20:10:52.641Z,2.80
2023-01-26T20:13:22.886Z,2.90
2023-01-26T20:15:53.089Z,2.90
2023-01-26T20:18:23.190Z,3.00
2023-01-26T20:21:00.935Z,3.00
2023-01-26T20:23:31.744Z,3.20
2023-01-26T20:26:07.250Z,3.00
2023-01-26T20:28:40.087Z,3.10
2023-01-26T20:31:12.153Z,3.10
2023-01-26T20:33:42.535Z,3.00
2023-01-26T20:36:19.270Z,2.90
2023-01-26T20:38:51.321Z,2.90
2023-01-26T20:41:26.319Z,2.80
2023-01-26T20:44:01.168Z,2.90
2023-01-26T20:46:34.433Z,2.90
2023-01-26T20:49:05.369Z,2.90
2023-01-26T20:51:40.595Z,3.10
2023-01-26T20:54:13.508Z,3.40
2023-01-26T20:56:45.760Z,3.40
2023-01-26T20:59:16.372Z,3.40
2023-01-26T21:01:46.822Z,3.60
2023-01-26T21:04:17.242Z,3.50
2023-01-26T21:06:50.001Z,3.50
2023-01-26T21:09:21.206Z,3.40
2023-01-26T21:11:51.729Z,3.40
2023-01-26T21:14:21.838Z,3.40
2023-01-26T21:16:54.834Z,3.30
2023-01-26T21:19:24.986Z,3.40
2023-01-26T21:21:59.292Z,3.30
2023-01-26T21:24:29.451Z,3.50
2023-01-26T21:26:59.611Z,3.40
2023-01-26T21:29:29.719Z,3.40
2023-01-26T21:31:59.883Z,3.50
2023-01-26T21:34:30.003Z,3.50
2023-01-26T21:37:02.821Z,3.50
2023-01-26T21:39:33.251Z,3.40
2023-01-26T21:42:03.435Z,3.40
2023-01-26T21:44:55.742Z,3.40
2023-01-26T21:47:25.983Z,3.40
2023-01-26T21:49:58.675Z,3.50
2023-01-26T21:52:44.140Z,3.60
2023-01-26T21:55:14.348Z,3.50
2023-01-26T21:57:56.895Z,3.60
2023-01-26T22:00:27.166Z,3.70
2023-01-26T22:02:59.652Z,3.70
2023-01-26T22:05:29.836Z,3.80
2023-01-26T22:08:02.695Z,3.70
2023-01-26T22:10:32.802Z,3.70
2023-01-26T22:13:02.952Z,3.60
2023-01-26T22:15:36.231Z,3.50
2023-01-26T22:18:06.430Z,3.50
2023-01-26T22:20:37.166Z,3.50
2023-01-26T22:23:10.016Z,3.50
2023-01-26T22:25:40.809Z,3.60
2023-01-26T22:28:11.503Z,3.80
2023-01-26T22:30:41.627Z,3.70
2023-01-26T22:33:11.826Z,3.60
2023-01-26T22:35:50.624Z,3.70
2023-01-26T22:38:23.274Z,3.60
2023-01-26T22:40:53.442Z,3.70
2023-01-26T22:43:23.755Z,3.70
2023-01-26T22:45:54.056Z,3.60
2023-01-26T22:48:24.441Z,3.50
2023-01-26T22:50:58.705Z,3.50
2023-01-26T22:53:32.051Z,3.40
2023-01-26T22:56:02.186Z,3.40
2023-01-26T22:58:33.267Z,3.40
2023-01-26T23:01:12.662Z,3.40
2023-01-26T23:03:45.577Z,3.40
2023-01-26T23:06:17.814Z,3.40
2023-01-26T23:08:50.790Z,3.40
2023-01-26T23:11:24.208Z,3.30
2023-01-26T23:13:57.023Z,3.40
2023-01-26T23:16:28.767Z,3.40
2023-01-26T23:19:01.343Z,3.30
2023-01-26T23:21:32.809Z,3.30
2023-01-26T23:24:05.566Z,3.30
2023-01-26T23:26:36.196Z,3.30
2023-01-26T23:29:06.595Z,3.40
2023-01-26T23:31:36.929Z,3.30
2023-01-26T23:34:09.990Z,3.30
2023-01-26T23:36:41.061Z,3.20
2023-01-26T23:39:13.779Z,3.20
2023-01-26T23:41:43.975Z,3.30
2023-01-26T23:44:14.425Z,3.30
2023-01-26T23:46:46.038Z,3.40
2023-01-26T23:49:17.476Z,3.70
2023-01-26T23:51:47.903Z,3.90
2023-01-26T23:54:20.729Z,4.10
2023-01-26T23:56:50.873Z,4.30
2023-01-26T23:59:22.109Z,4.40
